createdAt,value
2018-08-09T00:00:52.941Z,6.33
2018-08-09T00:03:21.400Z,6.87
2018-08-09T00:05:49.906Z,7.47
2018-08-09T00:08:18.429Z,7.50
2018-08-09T00:10:46.897Z,7.37
2018-08-09T00:13:15.406Z,7.50
2018-08-09T00:15:43.893Z,7.63
2018-08-09T00:18:12.373Z,7.73
2018-08-09T00:20:40.840Z,7.10
2018-08-09T00:23:09.309Z,7.20
2018-08-09T00:25:37.789Z,7.73
2018-08-09T00:28:06.310Z,7.27
2018-08-09T00:30:34.822Z,7.63
2018-08-09T00:33:03.313Z,6.73
2018-08-09T00:35:38.298Z,6.07
2018-08-09T00:38:06.823Z,6.40
2018-08-09T00:40:35.306Z,6.87
2018-08-09T00:43:03.797Z,6.10
2018-08-09T00:45:32.271Z,7.40
2018-08-09T00:48:00.790Z,6.87
2018-08-09T00:50:29.239Z,6.87
2018-08-09T00:52:57.744Z,6.13
2018-08-09T00:55:26.207Z,6.43
2018-08-09T00:57:54.778Z,5.87
2018-08-09T01:00:23.270Z,6.07
2018-08-09T01:02:51.741Z,6.63
2018-08-09T01:05:20.222Z,7.20
2018-08-09T01:07:48.709Z,6.20
2018-08-09T01:10:17.205Z,6.60
2018-08-09T01:12:45.715Z,6.00
2018-08-09T01:15:14.178Z,6.10
2018-08-09T01:17:47.104Z,6.40
2018-08-09T01:20:15.579Z,7.57
2018-08-09T01:22:44.557Z,6.47
2018-08-09T01:25:12.972Z,6.03
2018-08-09T01:27:41.485Z,6.30
2018-08-09T01:30:09.926Z,6.23
2018-08-09T01:32:38.421Z,7.53
2018-08-09T01:35:06.885Z,6.63
2018-08-09T01:37:35.417Z,6.67
2018-08-09T01:40:03.923Z,7.07
2018-08-09T01:42:43.690Z,7.10
2018-08-09T01:45:12.168Z,6.20
2018-08-09T01:47:40.632Z,7.33
2018-08-09T01:50:09.100Z,6.50
2018-08-09T01:52:37.585Z,7.17
2018-08-09T01:55:06.052Z,7.30
2018-08-09T01:57:34.638Z,7.37
2018-08-09T02:00:03.230Z,8.10
2018-08-09T02:02:31.674Z,8.17
2018-08-09T02:05:00.193Z,7.70
2018-08-09T02:07:28.729Z,7.87
2018-08-09T02:09:57.196Z,7.50
2018-08-09T02:12:25.676Z,8.00
2018-08-09T02:14:54.157Z,7.80
2018-08-09T02:17:22.635Z,7.23
2018-08-09T02:19:51.119Z,7.13
2018-08-09T02:22:19.590Z,8.30
2018-08-09T02:24:48.094Z,8.13
2018-08-09T02:27:16.531Z,8.03
2018-08-09T02:29:45.105Z,8.40
2018-08-09T02:32:13.537Z,7.50
2018-08-09T02:34:42.035Z,7.27
2018-08-09T02:37:10.530Z,7.30
2018-08-09T02:39:39.059Z,8.70
2018-08-09T02:42:07.525Z,7.53
2018-08-09T02:44:36.005Z,7.13
2018-08-09T02:47:04.455Z,8.17
2018-08-09T02:49:32.952Z,8.43
2018-08-09T02:52:01.385Z,7.57
2018-08-09T02:54:29.872Z,8.30
2018-08-09T02:56:58.342Z,7.83
2018-08-09T02:59:26.868Z,8.10
2018-08-09T03:01:55.361Z,8.07
2018-08-09T03:04:24.149Z,8.07
2018-08-09T03:06:52.738Z,8.03
2018-08-09T03:09:21.228Z,7.50
2018-08-09T03:11:49.770Z,7.23
2018-08-09T03:14:18.238Z,7.93
2018-08-09T03:16:46.704Z,8.10
2018-08-09T03:19:15.235Z,8.37
2018-08-09T03:21:43.668Z,8.00
2018-08-09T03:24:12.196Z,8.80
2018-08-09T03:26:40.653Z,8.03
2018-08-09T03:29:09.145Z,8.70
2018-08-09T03:31:37.612Z,8.53
2018-08-09T03:34:06.160Z,8.63
2018-08-09T03:36:34.635Z,8.13
2018-08-09T03:39:03.204Z,7.60
2018-08-09T03:41:31.640Z,7.80
2018-08-09T03:44:00.167Z,8.43
2018-08-09T03:46:28.735Z,7.90
2018-08-09T03:48:57.455Z,7.93
2018-08-09T03:51:25.937Z,7.70
2018-08-09T03:53:56.332Z,7.20
2018-08-09T03:56:24.847Z,8.37
2018-08-09T03:58:53.317Z,8.30
2018-08-09T04:01:21.755Z,9.03
2018-08-09T04:03:50.226Z,7.43
2018-08-09T04:06:18.685Z,8.67
2018-08-09T04:08:47.147Z,8.33
2018-08-09T04:11:15.585Z,7.43
2018-08-09T04:13:44.103Z,7.80
2018-08-09T04:16:12.500Z,7.33
2018-08-09T04:18:40.952Z,7.10
2018-08-09T04:21:16.289Z,7.87
2018-08-09T04:23:44.773Z,7.10
2018-08-09T04:26:14.540Z,7.00
2018-08-09T04:28:43.223Z,7.40
2018-08-09T04:31:11.686Z,7.07
2018-08-09T04:33:40.610Z,7.23
2018-08-09T04:36:09.352Z,7.83
2018-08-09T04:38:38.289Z,7.77
2018-08-09T04:41:06.773Z,7.07
2018-08-09T04:43:35.387Z,7.97
2018-08-09T04:46:03.949Z,7.97
2018-08-09T04:48:32.456Z,7.73
2018-08-09T04:51:00.920Z,8.40
2018-08-09T04:53:29.388Z,8.17
2018-08-09T04:55:57.823Z,8.00
2018-08-09T04:58:26.302Z,7.73
2018-08-09T05:00:54.891Z,8.10
2018-08-09T05:03:23.334Z,7.80
2018-08-09T05:05:51.834Z,7.70
2018-08-09T05:08:20.291Z,7.83
2018-08-09T05:10:48.758Z,8.50
2018-08-09T05:13:17.185Z,7.60
2018-08-09T05:15:45.643Z,8.30
2018-08-09T05:18:14.141Z,8.27
2018-08-09T05:20:42.602Z,7.93
2018-08-09T05:23:11.097Z,7.73
2018-08-09T05:25:39.536Z,7.80
2018-08-09T05:28:08.581Z,7.50
2018-08-09T05:30:37.013Z,7.73
2018-08-09T05:33:05.582Z,7.43
2018-08-09T05:35:34.014Z,7.90
2018-08-09T05:38:02.503Z,7.10
2018-08-09T05:40:31.118Z,7.50
2018-08-09T05:42:59.587Z,7.13
2018-08-09T05:45:28.067Z,7.40
2018-08-09T05:47:56.531Z,7.40
2018-08-09T05:50:24.976Z,6.80
2018-08-09T05:52:53.480Z,6.97
2018-08-09T05:55:21.903Z,6.97
2018-08-09T05:57:50.462Z,6.80
2018-08-09T06:00:18.932Z,6.87
2018-08-09T06:02:47.397Z,6.77
2018-08-09T06:05:15.839Z,6.43
2018-08-09T06:07:44.331Z,7.37
2018-08-09T06:10:12.767Z,6.13
2018-08-09T06:12:41.228Z,7.37
2018-08-09T06:15:09.718Z,7.30
2018-08-09T06:17:38.154Z,6.27
2018-08-09T06:20:06.987Z,6.87
2018-08-09T06:22:35.410Z,6.90
2018-08-09T06:25:04.460Z,6.63
2018-08-09T06:27:32.917Z,6.90
2018-08-09T06:30:01.398Z,6.40
2018-08-09T06:32:29.898Z,6.40
2018-08-09T06:34:58.378Z,6.43
2018-08-09T06:37:26.813Z,6.37
2018-08-09T06:39:55.305Z,6.03
2018-08-09T06:42:23.757Z,6.33
2018-08-09T06:44:52.242Z,6.17
2018-08-09T06:47:20.667Z,6.13
2018-08-09T06:49:49.152Z,5.90
2018-08-09T06:52:17.598Z,5.63
2018-08-09T06:54:46.078Z,5.90
2018-08-09T06:57:14.504Z,5.03
2018-08-09T06:59:42.973Z,6.13
2018-08-09T07:02:11.403Z,5.80
2018-08-09T07:04:39.887Z,5.53
2018-08-09T07:07:08.358Z,5.10
2018-08-09T07:09:36.815Z,5.22
2018-08-09T07:12:05.293Z,4.92
2018-08-09T07:14:33.784Z,5.33
2018-08-09T07:17:02.338Z,5.40
2018-08-09T07:19:30.817Z,5.12
2018-08-09T07:21:59.245Z,5.20
2018-08-09T07:24:27.900Z,4.72
2018-08-09T07:26:56.349Z,5.00
2018-08-09T07:29:24.824Z,4.60
2018-08-09T07:31:53.250Z,4.70
2018-08-09T07:34:21.703Z,4.70
2018-08-09T07:36:50.131Z,4.92
2018-08-09T07:39:18.656Z,4.30
2018-08-09T07:41:47.043Z,4.12
2018-08-09T07:44:15.497Z,3.98
2018-08-09T07:46:43.914Z,4.08
2018-08-09T07:49:12.379Z,3.75
2018-08-09T07:51:40.818Z,4.62
2018-08-09T07:54:09.326Z,3.98
2018-08-09T07:56:37.766Z,3.65
2018-08-09T07:59:06.299Z,3.95
2018-08-09T08:01:34.776Z,4.00
2018-08-09T08:04:03.245Z,3.90
2018-08-09T08:06:31.737Z,3.52
2018-08-09T08:09:00.185Z,3.50
2018-08-09T08:11:28.614Z,3.75
2018-08-09T08:13:57.092Z,3.33
2018-08-09T08:16:25.514Z,3.47
2018-08-09T08:18:54.014Z,3.08
2018-08-09T08:21:22.458Z,3.10
2018-08-09T08:23:50.893Z,3.00
2018-08-09T08:26:19.373Z,3.02
2018-08-09T08:28:47.858Z,3.25
2018-08-09T08:31:16.317Z,3.15
2018-08-09T08:33:44.780Z,3.45
2018-08-09T08:36:13.246Z,3.00
2018-08-09T08:38:41.718Z,3.33
2018-08-09T08:41:10.204Z,3.77
2018-08-09T08:43:38.678Z,2.87
2018-08-09T08:46:07.259Z,4.05
2018-08-09T08:48:35.703Z,3.83
2018-08-09T08:51:04.186Z,3.70
2018-08-09T08:53:32.666Z,3.72
2018-08-09T08:56:01.147Z,3.02
2018-08-09T08:58:29.621Z,3.58
2018-08-09T09:00:58.141Z,3.15
2018-08-09T09:03:26.578Z,3.37
2018-08-09T09:05:55.102Z,3.30
2018-08-09T09:08:23.531Z,3.62
2018-08-09T09:10:54.927Z,3.50
2018-08-09T09:13:23.949Z,3.60
2018-08-09T09:15:52.515Z,4.15
2018-08-09T09:18:21.048Z,3.70
2018-08-09T09:20:49.513Z,3.83
2018-08-09T09:23:17.952Z,4.15
2018-08-09T09:25:46.418Z,4.08
2018-08-09T09:28:14.914Z,3.25
2018-08-09T09:30:43.398Z,3.30
2018-08-09T09:33:11.827Z,3.27
2018-08-09T09:35:40.295Z,3.33
2018-08-09T09:38:08.732Z,3.20
2018-08-09T09:40:37.198Z,3.27
2018-08-09T09:43:05.956Z,3.35
2018-08-09T09:45:34.474Z,3.30
2018-08-09T09:48:02.922Z,3.65
2018-08-09T09:50:31.406Z,3.15
2018-08-09T09:52:59.893Z,3.17
2018-08-09T09:55:28.373Z,3.37
2018-08-09T09:57:56.841Z,3.87
2018-08-09T10:00:28.209Z,3.58
2018-08-09T10:02:56.689Z,3.40
2018-08-09T10:05:25.151Z,3.05
2018-08-09T10:07:53.622Z,3.52
2018-08-09T10:10:22.124Z,3.62
2018-08-09T10:12:50.628Z,3.70
2018-08-09T10:15:19.043Z,3.52
2018-08-09T10:17:47.477Z,3.87
2018-08-09T10:20:15.943Z,3.55
2018-08-09T10:22:44.392Z,3.95
2018-08-09T10:25:12.864Z,3.58
2018-08-09T10:27:41.306Z,3.40
2018-08-09T10:30:09.972Z,3.33
2018-08-09T10:32:38.449Z,4.08
2018-08-09T10:35:06.965Z,3.45
2018-08-09T10:37:35.397Z,3.08
2018-08-09T10:40:04.326Z,3.20
2018-08-09T10:42:32.757Z,2.92
2018-08-09T10:45:01.229Z,3.20
2018-08-09T10:47:29.938Z,2.90
2018-08-09T10:49:58.391Z,2.77
2018-08-09T10:52:26.835Z,2.80
2018-08-09T10:54:55.301Z,2.95
2018-08-09T10:57:23.760Z,2.58
2018-08-09T10:59:52.217Z,2.87
2018-08-09T11:02:20.757Z,2.75
2018-08-09T11:04:49.421Z,2.67
2018-08-09T11:07:18.010Z,2.60
2018-08-09T11:09:46.462Z,2.42
2018-08-09T11:12:14.940Z,2.40
2018-08-09T11:14:43.381Z,2.67
2018-08-09T11:17:11.860Z,2.45
2018-08-09T11:19:40.315Z,2.55
2018-08-09T11:22:08.896Z,2.47
2018-08-09T11:24:37.688Z,2.50
2018-08-09T11:27:06.165Z,2.17
2018-08-09T11:29:34.645Z,2.40
2018-08-09T11:32:03.131Z,2.42
2018-08-09T11:34:31.573Z,2.37
2018-08-09T11:37:00.053Z,2.62
2018-08-09T11:39:28.490Z,2.30
2018-08-09T11:41:56.992Z,2.70
2018-08-09T11:44:25.452Z,2.45
2018-08-09T11:46:54.143Z,2.20
2018-08-09T11:49:22.654Z,2.65
2018-08-09T11:51:51.428Z,2.30
2018-08-09T11:54:19.871Z,2.62
2018-08-09T11:56:48.355Z,2.77
2018-08-09T11:59:16.813Z,2.67
2018-08-09T12:01:45.415Z,2.58
2018-08-09T12:04:13.827Z,2.50
2018-08-09T12:06:42.359Z,2.22
2018-08-09T12:09:11.458Z,3.10
2018-08-09T12:11:40.099Z,3.50
2018-08-09T12:14:08.949Z,2.70
2018-08-09T12:16:37.528Z,3.10
2018-08-09T12:19:06.727Z,2.50
2018-08-09T12:21:35.215Z,2.70
2018-08-09T12:24:03.704Z,2.70
2018-08-09T12:26:32.309Z,3.00
2018-08-09T12:29:00.781Z,2.98
2018-08-09T12:31:29.237Z,2.70
2018-08-09T12:33:57.762Z,2.70
2018-08-09T12:36:26.283Z,2.80
2018-08-09T12:38:54.800Z,2.70
2018-08-09T12:41:23.263Z,2.75
2018-08-09T12:43:51.767Z,2.52
2018-08-09T12:46:20.294Z,2.62
2018-08-09T12:48:48.819Z,2.70
2018-08-09T12:51:17.350Z,2.85
2018-08-09T12:53:45.840Z,2.62
2018-08-09T12:56:14.318Z,2.70
2018-08-09T12:58:42.838Z,2.87
2018-08-09T13:01:11.283Z,2.70
2018-08-09T13:03:39.757Z,2.90
2018-08-09T13:06:08.297Z,2.40
2018-08-09T13:08:36.756Z,2.65
2018-08-09T13:11:05.221Z,2.65
2018-08-09T13:13:33.745Z,2.60
2018-08-09T13:16:02.211Z,2.62
2018-08-09T13:18:30.677Z,2.92
2018-08-09T13:20:59.171Z,2.55
2018-08-09T13:23:27.745Z,3.17
2018-08-09T13:25:56.134Z,2.55
2018-08-09T13:28:24.639Z,2.40
2018-08-09T13:30:53.081Z,2.55
2018-08-09T13:33:21.583Z,2.65
2018-08-09T13:35:50.030Z,2.50
2018-08-09T13:38:18.529Z,2.80
2018-08-09T13:40:48.911Z,2.05
2018-08-09T13:43:17.395Z,3.15
2018-08-09T13:45:45.856Z,2.58
2018-08-09T13:48:14.341Z,2.83
2018-08-09T13:50:42.817Z,2.60
2018-08-09T13:53:11.361Z,2.90
2018-08-09T13:55:39.921Z,2.40
2018-08-09T13:58:08.439Z,2.52
2018-08-09T14:00:36.941Z,2.50
2018-08-09T14:03:05.491Z,2.00
2018-08-09T14:05:34.000Z,2.60
2018-08-09T14:08:02.554Z,2.30
2018-08-09T14:10:31.088Z,2.12
2018-08-09T14:12:59.581Z,2.47
2018-08-09T14:15:28.094Z,2.60
2018-08-09T14:17:56.564Z,2.47
2018-08-09T14:20:25.050Z,2.60
2018-08-09T14:22:53.582Z,2.20
2018-08-09T14:25:22.090Z,1.82
2018-08-09T14:27:50.649Z,2.00
2018-08-09T14:30:19.162Z,2.50
2018-08-09T14:32:47.681Z,2.20
2018-08-09T14:35:16.924Z,2.30
2018-08-09T14:37:46.260Z,2.35
2018-08-09T14:40:15.396Z,2.30
2018-08-09T14:42:43.884Z,3.00
2018-08-09T14:45:13.989Z,2.67
2018-08-09T14:47:42.529Z,2.37
2018-08-09T14:50:11.034Z,2.85
2018-08-09T14:52:39.615Z,2.30
2018-08-09T14:55:10.475Z,2.58
2018-08-09T14:57:39.089Z,2.35
2018-08-09T15:00:11.625Z,2.40
2018-08-09T15:02:40.134Z,2.47
2018-08-09T15:05:08.657Z,2.12
2018-08-09T15:07:37.186Z,2.25
2018-08-09T15:10:05.670Z,2.47
2018-08-09T15:12:34.308Z,2.30
2018-08-09T15:15:02.819Z,2.62
2018-08-09T15:17:31.312Z,2.35
2018-08-09T15:19:59.761Z,2.40
2018-08-09T15:22:28.256Z,2.50
2018-08-09T15:24:56.717Z,2.30
2018-08-09T15:27:25.229Z,2.33
2018-08-09T15:29:53.712Z,2.45
2018-08-09T15:32:22.468Z,2.72
2018-08-09T15:34:50.929Z,2.62
2018-08-09T15:37:19.474Z,2.40
2018-08-09T15:39:47.980Z,2.92
2018-08-09T15:42:16.548Z,2.70
2018-08-09T15:44:45.070Z,2.72
2018-08-09T15:47:13.748Z,2.77
2018-08-09T15:49:42.218Z,2.50
2018-08-09T15:52:10.720Z,4.37
2018-08-09T15:54:39.219Z,4.08
2018-08-09T15:57:07.739Z,4.10
2018-08-09T15:59:36.221Z,4.35
2018-08-09T16:02:04.707Z,3.67
2018-08-09T16:04:33.353Z,3.62
2018-08-09T16:07:01.855Z,3.45
2018-08-09T16:09:30.354Z,3.02
2018-08-09T16:11:58.866Z,3.85
2018-08-09T16:14:27.334Z,3.00
2018-08-09T16:16:55.804Z,4.15
2018-08-09T16:19:24.273Z,3.60
2018-08-09T16:21:52.782Z,3.37
2018-08-09T16:24:21.250Z,3.20
2018-08-09T16:26:49.758Z,3.12
2018-08-09T16:29:18.228Z,2.85
2018-08-09T16:31:46.709Z,2.45
2018-08-09T16:34:15.273Z,2.22
2018-08-09T16:36:43.771Z,2.58
2018-08-09T16:39:13.850Z,2.20
2018-08-09T16:41:42.369Z,2.90
2018-08-09T16:44:11.416Z,2.60
2018-08-09T16:46:40.037Z,2.37
2018-08-09T16:49:08.712Z,2.30
2018-08-09T16:51:37.262Z,2.40
2018-08-09T16:54:05.730Z,2.40
2018-08-09T16:56:34.271Z,2.72
2018-08-09T16:59:02.704Z,1.90
2018-08-09T17:01:31.198Z,2.47
2018-08-09T17:03:59.726Z,2.77
2018-08-09T17:06:28.232Z,1.95
2018-08-09T17:08:56.744Z,2.10
2018-08-09T17:11:25.296Z,2.62
2018-08-09T17:13:53.827Z,1.92
2018-08-09T17:16:22.725Z,2.02
2018-08-09T17:18:51.231Z,1.92
2018-08-09T17:21:19.733Z,2.40
2018-08-09T17:23:48.375Z,2.33
2018-08-09T17:26:16.942Z,2.10
2018-08-09T17:28:45.456Z,2.35
2018-08-09T17:31:13.935Z,2.00
2018-08-09T17:33:42.447Z,2.10
2018-08-09T17:36:10.933Z,2.40
2018-08-09T17:38:39.400Z,2.33
2018-08-09T17:41:07.880Z,2.10
2018-08-09T17:43:36.390Z,2.30
2018-08-09T17:46:05.355Z,2.20
2018-08-09T17:48:35.275Z,2.40
2018-08-09T17:51:03.857Z,2.10
2018-08-09T17:53:32.380Z,2.60
2018-08-09T17:56:00.958Z,2.10
2018-08-09T17:58:29.527Z,2.15
2018-08-09T18:00:58.044Z,2.40
2018-08-09T18:03:26.759Z,2.22
2018-08-09T18:05:55.286Z,2.02
2018-08-09T18:08:23.809Z,3.47
2018-08-09T18:10:52.342Z,2.83
2018-08-09T18:13:20.862Z,2.15
2018-08-09T18:15:49.357Z,2.22
2018-08-09T18:18:17.855Z,2.65
2018-08-09T18:20:46.565Z,2.33
2018-08-09T18:23:15.063Z,2.27
2018-08-09T18:25:43.510Z,2.35
2018-08-09T18:28:12.039Z,2.30
2018-08-09T18:30:40.509Z,2.60
2018-08-09T18:33:08.995Z,2.27
2018-08-09T18:35:37.460Z,2.02
2018-08-09T18:38:06.007Z,2.37
2018-08-09T18:40:34.501Z,2.12
2018-08-09T18:43:03.067Z,2.25
2018-08-09T18:45:31.537Z,2.60
2018-08-09T18:48:00.017Z,2.20
2018-08-09T18:50:29.629Z,2.37
2018-08-09T18:52:58.154Z,2.12
2018-08-09T18:55:26.658Z,2.17
2018-08-09T18:57:55.211Z,2.58
2018-08-09T19:00:25.622Z,2.50
2018-08-09T19:02:54.621Z,2.37
2018-08-09T19:05:23.645Z,2.63
2018-08-09T19:07:52.278Z,1.85
2018-08-09T19:10:23.433Z,2.30
2018-08-09T19:12:52.554Z,2.40
2018-08-09T19:15:21.244Z,2.07
2018-08-09T19:17:49.875Z,2.30
2018-08-09T19:20:21.198Z,2.33
2018-08-09T19:22:50.306Z,2.33
2018-08-09T19:25:19.705Z,2.00
2018-08-09T19:27:48.657Z,2.53
2018-08-09T19:30:19.807Z,2.33
2018-08-09T19:32:48.890Z,2.27
2018-08-09T19:35:18.687Z,2.17
2018-08-09T19:37:47.465Z,2.43
2018-08-09T19:40:22.689Z,2.10
2018-08-09T19:42:51.277Z,2.40
2018-08-09T19:45:20.229Z,2.70
2018-08-09T19:47:49.221Z,2.40
2018-08-09T19:50:19.242Z,2.57
2018-08-09T19:52:49.538Z,2.20
2018-08-09T19:55:19.438Z,3.13
2018-08-09T19:57:48.796Z,2.50
2018-08-09T20:00:20.828Z,2.40
2018-08-09T20:02:49.933Z,3.00
2018-08-09T20:05:18.594Z,2.10
2018-08-09T20:07:47.142Z,2.30
2018-08-09T20:10:15.930Z,2.63
2018-08-09T20:12:45.381Z,2.27
2018-08-09T20:15:16.258Z,2.30
2018-08-09T20:17:44.829Z,2.03
2018-08-09T20:20:15.676Z,2.27
2018-08-09T20:22:44.341Z,2.30
2018-08-09T20:25:13.548Z,2.40
2018-08-09T20:27:42.592Z,2.00
2018-08-09T20:30:13.710Z,2.57
2018-08-09T20:32:42.773Z,3.37
2018-08-09T20:35:15.738Z,2.20
2018-08-09T20:37:45.354Z,2.17
2018-08-09T20:40:14.379Z,2.30
2018-08-09T20:42:43.457Z,3.00
2018-08-09T20:45:13.467Z,2.50
2018-08-09T20:47:41.927Z,4.07
2018-08-09T20:50:13.867Z,2.10
2018-08-09T20:52:43.072Z,2.33
2018-08-09T20:55:11.740Z,2.27
2018-08-09T20:57:41.201Z,2.63
2018-08-09T21:00:15.065Z,2.57
2018-08-09T21:02:44.384Z,2.60
2018-08-09T21:05:20.187Z,2.83
2018-08-09T21:07:48.937Z,2.40
2018-08-09T21:10:17.400Z,2.60
2018-08-09T21:12:45.957Z,2.30
2018-08-09T21:15:14.661Z,2.60
2018-08-09T21:17:43.714Z,2.93
2018-08-09T21:20:12.921Z,2.17
2018-08-09T21:22:41.465Z,2.57
2018-08-09T21:25:10.723Z,2.40
2018-08-09T21:27:39.416Z,2.70
2018-08-09T21:30:10.586Z,2.80
2018-08-09T21:32:39.071Z,2.90
2018-08-09T21:35:08.298Z,2.60
2018-08-09T21:37:36.905Z,2.63
2018-08-09T21:40:06.901Z,2.37
2018-08-09T21:42:35.464Z,2.73
2018-08-09T21:45:05.295Z,3.03
2018-08-09T21:47:33.811Z,2.63
2018-08-09T21:50:02.354Z,2.73
2018-08-09T21:52:30.929Z,3.80
2018-08-09T21:54:59.392Z,2.63
2018-08-09T21:57:28.018Z,2.80
2018-08-09T21:59:56.538Z,2.70
2018-08-09T22:02:25.159Z,3.97
2018-08-09T22:04:58.919Z,2.43
2018-08-09T22:07:33.000Z,2.60
2018-08-09T22:10:06.891Z,2.70
2018-08-09T22:12:40.653Z,2.60
2018-08-09T22:15:14.424Z,2.70
2018-08-09T22:17:48.519Z,2.60
2018-08-09T22:20:22.068Z,3.07
2018-08-09T22:22:51.004Z,2.33
2018-08-09T22:25:19.482Z,2.50
2018-08-09T22:27:47.979Z,2.70
2018-08-09T22:30:16.969Z,2.40
2018-08-09T22:32:45.525Z,2.40
2018-08-09T22:35:14.073Z,2.70
2018-08-09T22:37:42.686Z,2.50
2018-08-09T22:40:11.228Z,2.40
2018-08-09T22:42:39.723Z,2.60
2018-08-09T22:45:08.273Z,2.70
2018-08-09T22:47:36.742Z,2.57
2018-08-09T22:50:05.421Z,2.40
2018-08-09T22:52:33.930Z,2.83
2018-08-09T22:55:02.479Z,2.67
2018-08-09T22:57:31.009Z,2.50
2018-08-09T22:59:59.567Z,2.67
2018-08-09T23:02:28.042Z,2.63
2018-08-09T23:04:56.618Z,2.50
2018-08-09T23:07:25.212Z,2.30
2018-08-09T23:09:53.681Z,2.70
2018-08-09T23:12:22.260Z,2.97
2018-08-09T23:14:50.839Z,2.70
2018-08-09T23:17:19.742Z,2.60
2018-08-09T23:19:48.202Z,2.80
2018-08-09T23:22:19.862Z,2.93
2018-08-09T23:24:48.467Z,2.60
2018-08-09T23:27:16.986Z,2.73
2018-08-09T23:29:45.465Z,2.60
2018-08-09T23:32:14.019Z,2.30
2018-08-09T23:34:42.573Z,2.60
2018-08-09T23:37:11.009Z,2.37
2018-08-09T23:39:39.539Z,2.03
2018-08-09T23:42:08.110Z,2.50
2018-08-09T23:44:36.586Z,2.07
2018-08-09T23:47:05.139Z,2.43
2018-08-09T23:49:33.655Z,2.43
2018-08-09T23:52:02.185Z,2.43
2018-08-09T23:54:30.707Z,1.83
2018-08-09T23:56:59.177Z,2.07
2018-08-09T23:59:27.741Z,2.60
